sensor_id;sensor_type;location;lat;lon;timestamp;pressure;altitude;pressure_sealevel;temperature;humidity
13478;BME280;12598;62.382;17.344;2023-08-01T00:01:00;99812.44;;;27.05;37.74
13478;BME280;12598;62.382;17.344;2023-08-01T00:02:03;99809.72;;;27.05;37.85
13478;BME280;12598;62.382;17.344;2023-08-01T00:03:05;99808.88;;;27.04;37.95
13478;BME280;12598;62.382;17.344;2023-08-01T00:04:07;99811.59;;;27.04;37.75
13478;BME280;12598;62.382;17.344;2023-08-01T00:05:09;99813.69;;;27.02;37.82
13478;BME280;12598;62.382;17.344;2023-08-01T00:06:11;99807.47;;;27.02;37.56
13478;BME280;12598;62.382;17.344;2023-08-01T00:07:13;99818.06;;;27.03;37.83
13478;BME280;12598;62.382;17.344;2023-08-01T00:08:15;99810.38;;;27.00;37.83
13478;BME280;12598;62.382;17.344;2023-08-01T00:09:17;99809.31;;;27.01;37.98
13478;BME280;12598;62.382;17.344;2023-08-01T00:10:19;99804.97;;;27.00;37.91
13478;BME280;12598;62.382;17.344;2023-08-01T00:11:21;99804.97;;;27.00;37.81
13478;BME280;12598;62.382;17.344;2023-08-01T00:12:24;99796.22;;;26.98;37.87
13478;BME280;12598;62.382;17.344;2023-08-01T00:13:26;99797.88;;;26.99;37.87
13478;BME280;12598;62.382;17.344;2023-08-01T00:14:28;99797.03;;;26.99;37.88
13478;BME280;12598;62.382;17.344;2023-08-01T00:15:29;99791.59;;;26.99;37.84
13478;BME280;12598;62.382;17.344;2023-08-01T00:16:32;99793.50;;;26.98;37.91
13478;BME280;12598;62.382;17.344;2023-08-01T00:17:34;99779.19;;;26.91;37.86
13478;BME280;12598;62.382;17.344;2023-08-01T00:18:36;99790.78;;;26.98;37.88
13478;BME280;12598;62.382;17.344;2023-08-01T00:19:38;99789.94;;;26.98;37.96
13478;BME280;12598;62.382;17.344;2023-08-01T00:20:40;99786.41;;;26.97;38.07
13478;BME280;12598;62.382;17.344;2023-08-01T00:21:42;99793.72;;;26.97;37.87
13478;BME280;12598;62.382;17.344;2023-08-01T00:22:44;99781.22;;;26.96;38.08
13478;BME280;12598;62.382;17.344;2023-08-01T00:23:46;99777.69;;;26.95;38.09
13478;BME280;12598;62.382;17.344;2023-08-01T00:24:48;99780.41;;;26.95;37.92
13478;BME280;12598;62.382;17.344;2023-08-01T00:25:50;99771.19;;;26.96;38.07
13478;BME280;12598;62.382;17.344;2023-08-01T00:26:53;99774.97;;;26.95;37.98
13478;BME280;12598;62.382;17.344;2023-08-01T00:27:57;99770.34;;;26.96;38.13
13478;BME280;12598;62.382;17.344;2023-08-01T00:29:00;99779.56;;;26.95;37.83
13478;BME280;12598;62.382;17.344;2023-08-01T00:30:03;99779.56;;;26.95;38.04
13478;BME280;12598;62.382;17.344;2023-08-01T00:31:06;99777.91;;;26.94;37.93
13478;BME280;12598;62.382;17.344;2023-08-01T00:32:10;99776.63;;;26.96;37.93
13478;BME280;12598;62.382;17.344;2023-08-01T00:33:12;99765.84;;;26.90;38.11
13478;BME280;12598;62.382;17.344;2023-08-01T00:34:15;99773.31;;;26.94;38.24
13478;BME280;12598;62.382;17.344;2023-08-01T00:35:17;99778.97;;;26.93;38.35
13478;BME280;12598;62.382;17.344;2023-08-01T00:36:19;99780.84;;;26.92;38.17
13478;BME280;12598;62.382;17.344;2023-08-01T00:37:21;99776.50;;;26.91;37.95
13478;BME280;12598;62.382;17.344;2023-08-01T00:38:22;99777.31;;;26.92;38.11
13478;BME280;12598;62.382;17.344;2023-08-01T00:39:24;99777.53;;;26.90;38.26
13478;BME280;12598;62.382;17.344;2023-08-01T00:40:30;99766.56;;;26.85;38.13
13478;BME280;12598;62.382;17.344;2023-08-01T00:41:33;99761.13;;;26.85;38.30
13478;BME280;12598;62.382;17.344;2023-08-01T00:42:38;99769.41;;;26.90;38.23
13478;BME280;12598;62.382;17.344;2023-08-01T00:43:40;99767.50;;;26.91;38.15
13478;BME280;12598;62.382;17.344;2023-08-01T00:44:42;99770.69;;;26.88;38.27
13478;BME280;12598;62.382;17.344;2023-08-01T00:45:45;99755.91;;;26.84;38.16
13478;BME280;12598;62.382;17.344;2023-08-01T00:46:48;99762.53;;;26.88;38.13
13478;BME280;12598;62.382;17.344;2023-08-01T00:47:55;99770.47;;;26.89;38.37
13478;BME280;12598;62.382;17.344;2023-08-01T00:48:58;99756.66;;;26.91;38.37
13478;BME280;12598;62.382;17.344;2023-08-01T00:50:02;99766.69;;;26.90;38.15
13478;BME280;12598;62.382;17.344;2023-08-01T00:51:05;99757.97;;;26.88;38.05
13478;BME280;12598;62.382;17.344;2023-08-01T00:52:09;99758.41;;;26.85;37.98
13478;BME280;12598;62.382;17.344;2023-08-01T00:53:11;99751.34;;;26.84;38.24
13478;BME280;12598;62.382;17.344;2023-08-01T00:54:14;99760.66;;;26.88;38.09
13478;BME280;12598;62.382;17.344;2023-08-01T00:55:16;99754.25;;;26.83;38.02
13478;BME280;12598;62.382;17.344;2023-08-01T00:56:19;99761.72;;;26.87;38.07
13478;BME280;12598;62.382;17.344;2023-08-01T00:57:21;99767.16;;;26.87;38.32
13478;BME280;12598;62.382;17.344;2023-08-01T00:58:23;99763.59;;;26.87;38.12
13478;BME280;12598;62.382;17.344;2023-08-01T00:59:25;99764.66;;;26.86;38.37
13478;BME280;12598;62.382;17.344;2023-08-01T01:00:27;99767.38;;;26.86;38.34
13478;BME280;12598;62.382;17.344;2023-08-01T01:01:30;99762.19;;;26.84;38.45
13478;BME280;12598;62.382;17.344;2023-08-01T01:02:32;99759.47;;;26.84;38.45
13478;BME280;12598;62.382;17.344;2023-08-01T01:03:34;99764.91;;;26.84;38.20
13478;BME280;12598;62.382;17.344;2023-08-01T01:04:36;99762.19;;;26.84;38.37
13478;BME280;12598;62.382;17.344;2023-08-01T01:05:47;99752.22;;;26.78;38.62
13478;BME280;12598;62.382;17.344;2023-08-01T01:07:03;99759.63;;;26.89;38.15
13478;BME280;12598;62.382;17.344;2023-08-01T01:08:05;99760.44;;;26.90;38.33
13478;BME280;12598;62.382;17.344;2023-08-01T01:09:17;99756.31;;;26.87;38.32
13478;BME280;12598;62.382;17.344;2023-08-01T01:10:19;99757.97;;;26.88;38.12
13478;BME280;12598;62.382;17.344;2023-08-01T01:11:21;99757.34;;;26.86;38.35
13478;BME280;12598;62.382;17.344;2023-08-01T01:12:23;99769.28;;;26.85;38.30
13478;BME280;12598;62.382;17.344;2023-08-01T01:13:25;99761.34;;;26.84;38.30
13478;BME280;12598;62.382;17.344;2023-08-01T01:14:28;99762.41;;;26.83;38.56
13478;BME280;12598;62.382;17.344;2023-08-01T01:15:30;99762.19;;;26.84;38.32
13478;BME280;12598;62.382;17.344;2023-08-01T01:16:32;99764.31;;;26.82;38.49
13478;BME280;12598;62.382;17.344;2023-08-01T01:17:34;99761.00;;;26.80;38.25
13478;BME280;12598;62.382;17.344;2023-08-01T01:18:36;99762.66;;;26.81;38.50
13478;BME280;12598;62.382;17.344;2023-08-01T01:19:38;99768.06;;;26.81;38.56
13478;BME280;12598;62.382;17.344;2023-08-01T01:20:40;99767.22;;;26.81;38.66
13478;BME280;12598;62.382;17.344;2023-08-01T01:21:43;99754.72;;;26.80;38.51
13478;BME280;12598;62.382;17.344;2023-08-01T01:22:45;99763.69;;;26.80;38.50
13478;BME280;12598;62.382;17.344;2023-08-01T01:23:47;99754.72;;;26.80;38.36
13478;BME280;12598;62.382;17.344;2023-08-01T01:24:52;99760.16;;;26.80;38.44
13478;BME280;12598;62.382;17.344;2023-08-01T01:25:56;99764.31;;;26.82;38.18
13478;BME280;12598;62.382;17.344;2023-08-01T01:26:59;99754.50;;;26.81;38.56
13478;BME280;12598;62.382;17.344;2023-08-01T01:28:04;99755.56;;;26.80;38.66
13478;BME280;12598;62.382;17.344;2023-08-01T01:29:07;99757.22;;;26.81;38.54
13478;BME280;12598;62.382;17.344;2023-08-01T01:30:10;99755.31;;;26.82;38.61
13478;BME280;12598;62.382;17.344;2023-08-01T01:31:13;99755.56;;;26.80;38.63
13478;BME280;12598;62.382;17.344;2023-08-01T01:32:15;99736.06;;;26.72;38.64
13478;BME280;12598;62.382;17.344;2023-08-01T01:33:18;99748.47;;;26.79;38.64
13478;BME280;12598;62.382;17.344;2023-08-01T01:34:21;99748.47;;;26.79;38.60
13478;BME280;12598;62.382;17.344;2023-08-01T01:35:23;99740.56;;;26.78;38.78
13478;BME280;12598;62.382;17.344;2023-08-01T01:36:25;99748.47;;;26.79;38.57
13478;BME280;12598;62.382;17.344;2023-08-01T01:37:27;99740.34;;;26.79;38.63
13478;BME280;12598;62.382;17.344;2023-08-01T01:38:29;99735.94;;;26.78;38.55
13478;BME280;12598;62.382;17.344;2023-08-01T01:39:32;99737.63;;;26.79;38.79
13478;BME280;12598;62.382;17.344;2023-08-01T01:40:34;99733.22;;;26.78;38.48
13478;BME280;12598;62.382;17.344;2023-08-01T01:41:36;99739.50;;;26.79;38.74
13478;BME280;12598;62.382;17.344;2023-08-01T01:42:38;99743.06;;;26.79;38.56
13478;BME280;12598;62.382;17.344;2023-08-01T01:43:40;99735.94;;;26.78;38.58
13478;BME280;12598;62.382;17.344;2023-08-01T01:44:42;99739.72;;;26.77;38.59
13478;BME280;12598;62.382;17.344;2023-08-01T01:45:44;99734.28;;;26.77;38.32
13478;BME280;12598;62.382;17.344;2023-08-01T01:46:46;99734.28;;;26.77;38.80
13478;BME280;12598;62.382;17.344;2023-08-01T01:47:51;99730.97;;;26.75;38.79
13478;BME280;12598;62.382;17.344;2023-08-01T01:48:53;99726.84;;;26.73;38.55
13478;BME280;12598;62.382;17.344;2023-08-01T01:49:55;99735.13;;;26.78;38.59
13478;BME280;12598;62.382;17.344;2023-08-01T01:50:57;99742.44;;;26.77;38.80
13478;BME280;12598;62.382;17.344;2023-08-01T01:51:59;99745.13;;;26.77;38.69
13478;BME280;12598;62.382;17.344;2023-08-01T01:53:01;99753.28;;;26.77;38.29
13478;BME280;12598;62.382;17.344;2023-08-01T01:54:03;99732.34;;;26.66;38.73
13478;BME280;12598;62.382;17.344;2023-08-01T01:55:05;99748.09;;;26.76;38.47
13478;BME280;12598;62.382;17.344;2023-08-01T01:56:09;99739.13;;;26.75;38.62
13478;BME280;12598;62.382;17.344;2023-08-01T01:57:11;99738.91;;;26.77;38.67
13478;BME280;12598;62.382;17.344;2023-08-01T01:58:13;99731.81;;;26.76;38.73
13478;BME280;12598;62.382;17.344;2023-08-01T01:59:15;99724.75;;;26.75;38.71
13478;BME280;12598;62.382;17.344;2023-08-01T02:00:17;99733.69;;;26.75;38.59
13478;BME280;12598;62.382;17.344;2023-08-01T02:01:19;99730.16;;;26.75;38.57
13478;BME280;12598;62.382;17.344;2023-08-01T02:02:21;99732.88;;;26.75;38.67
13478;BME280;12598;62.382;17.344;2023-08-01T02:03:23;99738.50;;;26.73;38.74
13478;BME280;12598;62.382;17.344;2023-08-01T02:04:24;99731.44;;;26.72;38.78
13478;BME280;12598;62.382;17.344;2023-08-01T02:05:26;99729.31;;;26.74;38.37
13478;BME280;12598;62.382;17.344;2023-08-01T02:06:28;99724.97;;;26.73;38.69
13478;BME280;12598;62.382;17.344;2023-08-01T02:07:30;99724.16;;;26.73;38.66
13478;BME280;12598;62.382;17.344;2023-08-01T02:08:33;99711.84;;;26.70;38.96
13478;BME280;12598;62.382;17.344;2023-08-01T02:09:36;99716.81;;;26.73;38.84
13478;BME280;12598;62.382;17.344;2023-08-01T02:10:38;99720.59;;;26.72;38.63
13478;BME280;12598;62.382;17.344;2023-08-01T02:11:40;99713.28;;;26.73;38.78
13478;BME280;12598;62.382;17.344;2023-08-01T02:12:42;99720.38;;;26.74;38.86
13478;BME280;12598;62.382;17.344;2023-08-01T02:13:44;99717.28;;;26.70;38.63
13478;BME280;12598;62.382;17.344;2023-08-01T02:14:46;99707.94;;;26.66;38.55
13478;BME280;12598;62.382;17.344;2023-08-01T02:15:48;99718.72;;;26.73;38.60
13478;BME280;12598;62.382;17.344;2023-08-01T02:16:49;99722.25;;;26.73;38.55
13478;BME280;12598;62.382;17.344;2023-08-01T02:17:52;99720.59;;;26.72;38.54
13478;BME280;12598;62.382;17.344;2023-08-01T02:18:54;99716.22;;;26.71;38.73
13478;BME280;12598;62.382;17.344;2023-08-01T02:19:55;99710.59;;;26.73;38.95
13478;BME280;12598;62.382;17.344;2023-08-01T02:20:57;99701.00;;;26.70;38.75
13478;BME280;12598;62.382;17.344;2023-08-01T02:21:59;99707.28;;;26.71;38.58
13478;BME280;12598;62.382;17.344;2023-08-01T02:23:01;99702.66;;;26.71;38.71
13478;BME280;12598;62.382;17.344;2023-08-01T02:24:03;99687.31;;;26.65;38.96
13478;BME280;12598;62.382;17.344;2023-08-01T02:25:05;99702.66;;;26.71;38.63
13478;BME280;12598;62.382;17.344;2023-08-01T02:26:07;99694.53;;;26.71;38.67
13478;BME280;12598;62.382;17.344;2023-08-01T02:27:10;99691.81;;;26.71;38.88
13478;BME280;12598;62.382;17.344;2023-08-01T02:28:11;99693.13;;;26.69;38.59
13478;BME280;12598;62.382;17.344;2023-08-01T02:29:14;99697.25;;;26.71;38.86
13478;BME280;12598;62.382;17.344;2023-08-01T02:30:16;99694.78;;;26.70;38.79
13478;BME280;12598;62.382;17.344;2023-08-01T02:31:19;99688.16;;;26.66;38.89
13478;BME280;12598;62.382;17.344;2023-08-01T02:32:21;99692.88;;;26.70;38.78
13478;BME280;12598;62.382;17.344;2023-08-01T02:33:24;99701.00;;;26.70;38.76
13478;BME280;12598;62.382;17.344;2023-08-01T02:34:27;99693.94;;;26.69;38.83
13478;BME280;12598;62.382;17.344;2023-08-01T02:35:29;99688.50;;;26.69;38.68
13478;BME280;12598;62.382;17.344;2023-08-01T02:36:31;99686.03;;;26.68;38.71
13478;BME280;12598;62.382;17.344;2023-08-01T02:37:33;99687.44;;;26.70;38.73
13478;BME280;12598;62.382;17.344;2023-08-01T02:38:34;99671.50;;;26.62;38.81
13478;BME280;12598;62.382;17.344;2023-08-01T02:39:36;99674.94;;;26.69;38.65
13478;BME280;12598;62.382;17.344;2023-08-01T02:40:38;99684.13;;;26.68;38.82
13478;BME280;12598;62.382;17.344;2023-08-01T02:41:40;99686.03;;;26.68;38.82
13478;BME280;12598;62.382;17.344;2023-08-01T02:42:42;99678.13;;;26.66;38.85
13478;BME280;12598;62.382;17.344;2023-08-01T02:43:44;99681.44;;;26.68;38.62
13478;BME280;12598;62.382;17.344;2023-08-01T02:44:46;99675.66;;;26.65;38.93
13478;BME280;12598;62.382;17.344;2023-08-01T02:45:48;99688.50;;;26.69;38.86
13478;BME280;12598;62.382;17.344;2023-08-01T02:46:50;99683.53;;;26.66;38.95
13478;BME280;12598;62.382;17.344;2023-08-01T02:47:52;99686.03;;;26.68;38.94
13478;BME280;12598;62.382;17.344;2023-08-01T02:48:56;99681.44;;;26.68;38.71
13478;BME280;12598;62.382;17.344;2023-08-01T02:49:58;99673.16;;;26.63;38.87
13478;BME280;12598;62.382;17.344;2023-08-01T02:51:00;99686.03;;;26.68;38.61
13478;BME280;12598;62.382;17.344;2023-08-01T02:52:03;99675.19;;;26.68;38.87
13478;BME280;12598;62.382;17.344;2023-08-01T02:53:06;99673.53;;;26.67;38.84
13478;BME280;12598;62.382;17.344;2023-08-01T02:54:08;99676.00;;;26.68;38.68
13478;BME280;12598;62.382;17.344;2023-08-01T02:55:10;99672.47;;;26.68;38.61
13478;BME280;12598;62.382;17.344;2023-08-01T02:56:12;99665.25;;;26.62;38.99
13478;BME280;12598;62.382;17.344;2023-08-01T02:57:13;99667.28;;;26.66;38.72
13478;BME280;12598;62.382;17.344;2023-08-01T02:58:15;99672.69;;;26.66;38.96
13478;BME280;12598;62.382;17.344;2023-08-01T02:59:20;99661.50;;;26.63;38.63
13478;BME280;12598;62.382;17.344;2023-08-01T03:00:21;99671.63;;;26.67;38.95
13478;BME280;12598;62.382;17.344;2023-08-01T03:01:23;99668.91;;;26.67;38.66
13478;BME280;12598;62.382;17.344;2023-08-01T03:02:25;99666.47;;;26.66;38.87
13478;BME280;12598;62.382;17.344;2023-08-01T03:03:30;99663.75;;;26.66;38.68
13478;BME280;12598;62.382;17.344;2023-08-01T03:04:32;99665.41;;;26.67;38.77
13478;BME280;12598;62.382;17.344;2023-08-01T03:05:47;99668.47;;;26.70;38.82
13478;BME280;12598;62.382;17.344;2023-08-01T03:06:49;99666.00;;;26.69;38.67
13478;BME280;12598;62.382;17.344;2023-08-01T03:07:51;99663.50;;;26.67;38.67
13478;BME280;12598;62.382;17.344;2023-08-01T03:08:53;99659.13;;;26.66;38.70
13478;BME280;12598;62.382;17.344;2023-08-01T03:09:55;99648.16;;;26.61;38.89
13478;BME280;12598;62.382;17.344;2023-08-01T03:10:57;99649.34;;;26.65;38.75
13478;BME280;12598;62.382;17.344;2023-08-01T03:11:59;99653.09;;;26.64;38.90
13478;BME280;12598;62.382;17.344;2023-08-01T03:13:01;99653.09;;;26.64;38.85
13478;BME280;12598;62.382;17.344;2023-08-01T03:14:03;99659.38;;;26.65;38.81
13478;BME280;12598;62.382;17.344;2023-08-01T03:15:06;99645.81;;;26.65;38.87
13478;BME280;12598;62.382;17.344;2023-08-01T03:16:10;99643.91;;;26.65;38.90
13478;BME280;12598;62.382;17.344;2023-08-01T03:17:12;99638.97;;;26.62;38.97
13478;BME280;12598;62.382;17.344;2023-08-01T03:18:14;99643.91;;;26.65;38.95
13478;BME280;12598;62.382;17.344;2023-08-01T03:19:16;99643.09;;;26.65;38.83
13478;BME280;12598;62.382;17.344;2023-08-01T03:20:18;99633.78;;;26.61;38.78
13478;BME280;12598;62.382;17.344;2023-08-01T03:21:20;99631.06;;;26.61;38.87
13478;BME280;12598;62.382;17.344;2023-08-01T03:22:22;99641.47;;;26.64;38.93
13478;BME280;12598;62.382;17.344;2023-08-01T03:23:24;99641.47;;;26.64;38.88
13478;BME280;12598;62.382;17.344;2023-08-01T03:24:26;99641.66;;;26.62;39.05
13478;BME280;12598;62.382;17.344;2023-08-01T03:25:29;99634.13;;;26.64;38.66
13478;BME280;12598;62.382;17.344;2023-08-01T03:26:30;99624.59;;;26.62;38.63
13478;BME280;12598;62.382;17.344;2023-08-01T03:27:33;99624.81;;;26.60;38.84
13478;BME280;12598;62.382;17.344;2023-08-01T03:28:35;99635.19;;;26.63;38.96
13478;BME280;12598;62.382;17.344;2023-08-01T03:29:39;99628.94;;;26.63;38.84
13478;BME280;12598;62.382;17.344;2023-08-01T03:30:41;99642.25;;;26.64;38.90
13478;BME280;12598;62.382;17.344;2023-08-01T03:31:43;99636.03;;;26.64;38.76
13478;BME280;12598;62.382;17.344;2023-08-01T03:32:45;99625.72;;;26.54;38.82
13478;BME280;12598;62.382;17.344;2023-08-01T03:33:47;99642.50;;;26.63;38.84
13478;BME280;12598;62.382;17.344;2023-08-01T03:34:49;99637.91;;;26.63;38.85
13478;BME280;12598;62.382;17.344;2023-08-01T03:35:51;99625.25;;;26.57;38.89
13478;BME280;12598;62.382;17.344;2023-08-01T03:36:53;99636.50;;;26.61;38.67
13478;BME280;12598;62.382;17.344;2023-08-01T03:37:55;99630.09;;;26.55;38.84
13478;BME280;12598;62.382;17.344;2023-08-01T03:38:57;99632.94;;;26.60;38.75
13478;BME280;12598;62.382;17.344;2023-08-01T03:39:59;99636.50;;;26.61;38.93
13478;BME280;12598;62.382;17.344;2023-08-01T03:41:01;99631.88;;;26.61;38.87
13478;BME280;12598;62.382;17.344;2023-08-01T03:42:03;99631.06;;;26.61;38.62
13478;BME280;12598;62.382;17.344;2023-08-01T03:43:05;99632.72;;;26.62;38.85
13478;BME280;12598;62.382;17.344;2023-08-01T03:44:08;99625.03;;;26.59;38.61
13478;BME280;12598;62.382;17.344;2023-08-01T03:45:10;99634.59;;;26.61;38.66
13478;BME280;12598;62.382;17.344;2023-08-01T03:46:12;99631.88;;;26.61;38.73
13478;BME280;12598;62.382;17.344;2023-08-01T03:47:13;99642.72;;;26.61;38.51
13478;BME280;12598;62.382;17.344;2023-08-01T03:48:15;99637.56;;;26.60;38.71
13478;BME280;12598;62.382;17.344;2023-08-01T03:49:18;99620.06;;;26.56;38.66
13478;BME280;12598;62.382;17.344;2023-08-01T03:50:20;99596.06;;;26.41;38.61
13478;BME280;12598;62.382;17.344;2023-08-01T03:51:24;99626.69;;;26.60;38.73
13478;BME280;12598;62.382;17.344;2023-08-01T03:52:26;99619.38;;;26.60;38.90
13478;BME280;12598;62.382;17.344;2023-08-01T03:53:28;99615.69;;;26.55;38.36
13478;BME280;12598;62.382;17.344;2023-08-01T03:54:30;99620.44;;;26.59;38.67
13478;BME280;12598;62.382;17.344;2023-08-01T03:55:32;99628.56;;;26.59;38.82
13478;BME280;12598;62.382;17.344;2023-08-01T03:56:35;99618.41;;;26.55;38.88
13478;BME280;12598;62.382;17.344;2023-08-01T03:57:37;99616.53;;;26.55;39.00
13478;BME280;12598;62.382;17.344;2023-08-01T03:58:40;99626.91;;;26.58;38.75
13478;BME280;12598;62.382;17.344;2023-08-01T03:59:43;99616.91;;;26.59;38.65
13478;BME280;12598;62.382;17.344;2023-08-01T04:00:45;99616.91;;;26.59;38.88
13478;BME280;12598;62.382;17.344;2023-08-01T04:01:47;99615.69;;;26.55;39.11
13478;BME280;12598;62.382;17.344;2023-08-01T04:02:49;99621.50;;;26.58;38.64
13478;BME280;12598;62.382;17.344;2023-08-01T04:03:52;99621.50;;;26.58;39.02
13478;BME280;12598;62.382;17.344;2023-08-01T04:04:54;99626.06;;;26.58;38.81
13478;BME280;12598;62.382;17.344;2023-08-01T04:05:56;99620.66;;;26.58;38.89
13478;BME280;12598;62.382;17.344;2023-08-01T04:06:58;99623.38;;;26.58;38.99
13478;BME280;12598;62.382;17.344;2023-08-01T04:07:59;99627.75;;;26.59;38.95
13478;BME280;12598;62.382;17.344;2023-08-01T04:09:01;99619.84;;;26.57;38.84
13478;BME280;12598;62.382;17.344;2023-08-01T04:10:04;99617.34;;;26.56;38.93
13478;BME280;12598;62.382;17.344;2023-08-01T04:11:06;99624.66;;;26.55;38.75
13478;BME280;12598;62.382;17.344;2023-08-01T04:12:08;99625.72;;;26.54;38.91
13478;BME280;12598;62.382;17.344;2023-08-01T04:13:10;99622.56;;;26.57;39.02
13478;BME280;12598;62.382;17.344;2023-08-01T04:14:12;99622.75;;;26.56;38.71
13478;BME280;12598;62.382;17.344;2023-08-01T04:15:14;99626.31;;;26.56;38.95
13478;BME280;12598;62.382;17.344;2023-08-01T04:16:16;99624.41;;;26.57;38.95
13478;BME280;12598;62.382;17.344;2023-08-01T04:17:18;99605.59;;;26.44;38.85
13478;BME280;12598;62.382;17.344;2023-08-01T04:18:19;99629.84;;;26.57;39.02
13478;BME280;12598;62.382;17.344;2023-08-01T04:19:21;99629.84;;;26.57;39.09
13478;BME280;12598;62.382;17.344;2023-08-01T04:20:23;99628.19;;;26.56;39.22
13478;BME280;12598;62.382;17.344;2023-08-01T04:21:25;99627.38;;;26.55;39.27
13478;BME280;12598;62.382;17.344;2023-08-01T04:22:27;99628.44;;;26.54;38.98
13478;BME280;12598;62.382;17.344;2023-08-01T04:23:29;99633.63;;;26.56;38.58
13478;BME280;12598;62.382;17.344;2023-08-01T04:24:31;99629.25;;;26.55;39.11
13478;BME280;12598;62.382;17.344;2023-08-01T04:25:33;99626.53;;;26.55;39.28
13478;BME280;12598;62.382;17.344;2023-08-01T04:26:34;99625.72;;;26.54;39.23
13478;BME280;12598;62.382;17.344;2023-08-01T04:27:39;99617.47;;;26.49;39.39
13478;BME280;12598;62.382;17.344;2023-08-01T04:28:41;99622.41;;;26.52;39.12
13478;BME280;12598;62.382;17.344;2023-08-01T04:29:43;99613.91;;;26.49;39.37
13478;BME280;12598;62.382;17.344;2023-08-01T04:30:49;99617.59;;;26.54;39.34
13478;BME280;12598;62.382;17.344;2023-08-01T04:31:51;99624.41;;;26.57;39.29
13478;BME280;12598;62.382;17.344;2023-08-01T04:32:53;99620.91;;;26.56;39.29
13478;BME280;12598;62.382;17.344;2023-08-01T04:33:55;99622.63;;;26.51;39.06
13478;BME280;12598;62.382;17.344;2023-08-01T04:34:57;99631.97;;;26.55;39.29
13478;BME280;12598;62.382;17.344;2023-08-01T04:35:59;99617.47;;;26.49;39.42
13478;BME280;12598;62.382;17.344;2023-08-01T04:37:01;99631.16;;;26.54;39.36
13478;BME280;12598;62.382;17.344;2023-08-01T04:38:03;99628.91;;;26.51;39.37
13478;BME280;12598;62.382;17.344;2023-08-01T04:39:05;99638.22;;;26.55;39.66
13478;BME280;12598;62.382;17.344;2023-08-01T04:40:07;99621.22;;;26.48;39.39
13478;BME280;12598;62.382;17.344;2023-08-01T04:41:09;99625.72;;;26.54;39.42
13478;BME280;12598;62.382;17.344;2023-08-01T04:42:11;99619.91;;;26.51;39.42
13478;BME280;12598;62.382;17.344;2023-08-01T04:43:13;99621.34;;;26.53;39.20
13478;BME280;12598;62.382;17.344;2023-08-01T04:44:15;99619.47;;;26.54;39.33
13478;BME280;12598;62.382;17.344;2023-08-01T04:45:17;99620.31;;;26.54;39.52
13478;BME280;12598;62.382;17.344;2023-08-01T04:46:19;99624.88;;;26.54;39.50
13478;BME280;12598;62.382;17.344;2023-08-01T04:47:21;99624.06;;;26.53;39.34
13478;BME280;12598;62.382;17.344;2023-08-01T04:48:23;99622.63;;;26.51;39.27
13478;BME280;12598;62.382;17.344;2023-08-01T04:49:25;99626.78;;;26.53;39.18
13478;BME280;12598;62.382;17.344;2023-08-01T04:50:27;99629.50;;;26.53;39.42
13478;BME280;12598;62.382;17.344;2023-08-01T04:51:29;99630.31;;;26.54;39.59
13478;BME280;12598;62.382;17.344;2023-08-01T04:52:31;99631.34;;;26.53;39.32
13478;BME280;12598;62.382;17.344;2023-08-01T04:53:32;99631.34;;;26.53;39.45
13478;BME280;12598;62.382;17.344;2023-08-01T04:54:34;99622.28;;;26.47;39.13
13478;BME280;12598;62.382;17.344;2023-08-01T04:55:36;99633.25;;;26.52;39.42
13478;BME280;12598;62.382;17.344;2023-08-01T04:56:38;99638.44;;;26.54;39.61
13478;BME280;12598;62.382;17.344;2023-08-01T04:57:40;99634.06;;;26.53;39.50
13478;BME280;12598;62.382;17.344;2023-08-01T04:58:42;99638.69;;;26.52;39.38
13478;BME280;12598;62.382;17.344;2023-08-01T04:59:44;99632.41;;;26.52;39.61
13478;BME280;12598;62.382;17.344;2023-08-01T05:00:46;99635.97;;;26.52;39.38
13478;BME280;12598;62.382;17.344;2023-08-01T05:01:48;99639.75;;;26.51;39.60
13478;BME280;12598;62.382;17.344;2023-08-01T05:02:50;99639.75;;;26.51;39.53
13478;BME280;12598;62.382;17.344;2023-08-01T05:03:52;99647.88;;;26.51;39.41
13478;BME280;12598;62.382;17.344;2023-08-01T05:04:54;99644.31;;;26.51;39.52
13478;BME280;12598;62.382;17.344;2023-08-01T05:05:56;99642.66;;;26.50;39.55
13478;BME280;12598;62.382;17.344;2023-08-01T05:06:58;99640.63;;;26.45;39.39
13478;BME280;12598;62.382;17.344;2023-08-01T05:07:59;99645.16;;;26.51;39.64
13478;BME280;12598;62.382;17.344;2023-08-01T05:09:02;99647.88;;;26.51;39.60
13478;BME280;12598;62.382;17.344;2023-08-01T05:10:04;99651.19;;;26.53;39.65
13478;BME280;12598;62.382;17.344;2023-08-01T05:11:06;99658.25;;;26.54;39.45
13478;BME280;12598;62.382;17.344;2023-08-01T05:12:08;99653.66;;;26.55;39.48
13478;BME280;12598;62.382;17.344;2023-08-01T05:13:10;99650.72;;;26.56;39.75
13478;BME280;12598;62.382;17.344;2023-08-01T05:14:12;99653.19;;;26.58;39.54
13478;BME280;12598;62.382;17.344;2023-08-01T05:15:14;99655.69;;;26.59;39.20
13478;BME280;12598;62.382;17.344;2023-08-01T05:16:17;99671.50;;;26.62;39.15
13478;BME280;12598;62.382;17.344;2023-08-01T05:17:19;99653.09;;;26.64;39.54
13478;BME280;12598;62.382;17.344;2023-08-01T05:18:21;99653.34;;;26.63;39.26
13478;BME280;12598;62.382;17.344;2023-08-01T05:19:23;99657.84;;;26.69;39.32
13478;BME280;12598;62.382;17.344;2023-08-01T05:20:25;99658.47;;;26.71;38.97
13478;BME280;12598;62.382;17.344;2023-08-01T05:21:32;99655.03;;;26.75;39.39
13478;BME280;12598;62.382;17.344;2023-08-01T05:22:34;99662.13;;;26.76;39.06
13478;BME280;12598;62.382;17.344;2023-08-01T05:23:36;99649.63;;;26.75;39.02
13478;BME280;12598;62.382;17.344;2023-08-01T05:24:38;99660.38;;;26.82;38.63
13478;BME280;12598;62.382;17.344;2023-08-01T05:25:40;99661.56;;;26.86;38.93
13478;BME280;12598;62.382;17.344;2023-08-01T05:26:42;99662.16;;;26.88;38.83